sensor_id;sensor_type;location;lat;lon;timestamp;P1;durP1;ratioP1;P2;durP2;ratioP2
9264;SDS011;4669;49.594;10.958;2023-02-28T05:29:02;6.40;;;5.80;;
9264;SDS011;4669;49.594;10.958;2023-02-28T05:34:04;6.90;;;5.97;;
9264;SDS011;4669;49.594;10.958;2023-02-28T05:39:06;8.50;;;6.53;;
9264;SDS011;4669;49.594;10.958;2023-02-28T05:44:13;7.97;;;6.30;;
9264;SDS011;4669;49.594;10.958;2023-02-28T05:49:16;6.83;;;6.00;;
9264;SDS011;4669;49.594;10.958;2023-02-28T05:54:18;6.53;;;5.83;;
9264;SDS011;4669;49.594;10.958;2023-02-28T05:59:22;9.03;;;6.87;;
9264;SDS011;4669;49.594;10.958;2023-02-28T06:04:24;7.73;;;6.67;;
9264;SDS011;4669;49.594;10.958;2023-02-28T06:09:26;8.50;;;6.90;;
9264;SDS011;4669;49.594;10.958;2023-02-28T06:14:29;8.97;;;7.07;;
9264;SDS011;4669;49.594;10.958;2023-02-28T06:19:31;8.90;;;7.47;;
9264;SDS011;4669;49.594;10.958;2023-02-28T06:24:33;8.30;;;7.20;;
9264;SDS011;4669;49.594;10.958;2023-02-28T06:29:37;10.80;;;9.40;;
9264;SDS011;4669;49.594;10.958;2023-02-28T06:34:39;10.57;;;7.77;;
9264;SDS011;4669;49.594;10.958;2023-02-28T06:39:41;9.20;;;7.47;;
9264;SDS011;4669;49.594;10.958;2023-02-28T06:44:45;9.20;;;7.60;;
9264;SDS011;4669;49.594;10.958;2023-02-28T06:49:47;9.67;;;7.70;;
9264;SDS011;4669;49.594;10.958;2023-02-28T06:54:49;10.80;;;7.73;;
9264;SDS011;4669;49.594;10.958;2023-02-28T07:00:02;8.23;;;7.27;;
9264;SDS011;4669;49.594;10.958;2023-02-28T07:05:07;9.03;;;7.63;;
9264;SDS011;4669;49.594;10.958;2023-02-28T07:10:10;9.57;;;8.10;;
9264;SDS011;4669;49.594;10.958;2023-02-28T07:15:14;9.20;;;8.20;;
9264;SDS011;4669;49.594;10.958;2023-02-28T07:20:16;10.33;;;8.57;;
9264;SDS011;4669;49.594;10.958;2023-02-28T07:25:18;11.80;;;7.53;;
9264;SDS011;4669;49.594;10.958;2023-02-28T07:30:22;10.73;;;8.20;;
9264;SDS011;4669;49.594;10.958;2023-02-28T07:35:24;10.00;;;8.77;;
9264;SDS011;4669;49.594;10.958;2023-02-28T07:40:26;11.60;;;8.73;;
9264;SDS011;4669;49.594;10.958;2023-02-28T07:45:29;11.13;;;8.87;;
9264;SDS011;4669;49.594;10.958;2023-02-28T07:50:32;11.90;;;8.87;;
9264;SDS011;4669;49.594;10.958;2023-02-28T07:55:34;11.17;;;8.93;;
9264;SDS011;4669;49.594;10.958;2023-02-28T08:00:37;10.90;;;9.10;;
9264;SDS011;4669;49.594;10.958;2023-02-28T08:05:40;13.20;;;9.50;;
9264;SDS011;4669;49.594;10.958;2023-02-28T08:10:42;11.77;;;9.63;;
9264;SDS011;4669;49.594;10.958;2023-02-28T08:15:46;11.17;;;9.47;;
9264;SDS011;4669;49.594;10.958;2023-02-28T08:20:48;13.20;;;9.60;;
9264;SDS011;4669;49.594;10.958;2023-02-28T08:25:54;11.57;;;9.47;;
9264;SDS011;4669;49.594;10.958;2023-02-28T08:30:58;13.40;;;9.73;;
9264;SDS011;4669;49.594;10.958;2023-02-28T08:36:00;14.73;;;9.70;;
9264;SDS011;4669;49.594;10.958;2023-02-28T08:41:03;10.63;;;9.43;;
9264;SDS011;4669;49.594;10.958;2023-02-28T08:46:08;9.27;;;8.20;;
9264;SDS011;4669;49.594;10.958;2023-02-28T08:51:14;12.77;;;9.27;;
9264;SDS011;4669;49.594;10.958;2023-02-28T08:56:18;14.53;;;8.93;;
9264;SDS011;4669;49.594;10.958;2023-02-28T09:01:23;9.90;;;8.37;;
9264;SDS011;4669;49.594;10.958;2023-02-28T09:06:28;9.60;;;8.13;;
9264;SDS011;4669;49.594;10.958;2023-02-28T09:11:30;11.97;;;8.10;;
9264;SDS011;4669;49.594;10.958;2023-02-28T09:16:33;9.70;;;7.63;;
9264;SDS011;4669;49.594;10.958;2023-02-28T09:21:36;10.00;;;7.30;;
9264;SDS011;4669;49.594;10.958;2023-02-28T09:26:37;12.10;;;8.27;;
9264;SDS011;4669;49.594;10.958;2023-02-28T09:31:41;11.13;;;8.47;;
9264;SDS011;4669;49.594;10.958;2023-02-28T09:36:43;11.70;;;8.25;;
9264;SDS011;4669;49.594;10.958;2023-02-28T09:41:46;10.00;;;7.47;;
9264;SDS011;4669;49.594;10.958;2023-02-28T09:46:53;9.45;;;7.68;;
9264;SDS011;4669;49.594;10.958;2023-02-28T09:52:00;9.83;;;6.80;;
9264;SDS011;4669;49.594;10.958;2023-02-28T09:57:05;8.43;;;7.17;;
9264;SDS011;4669;49.594;10.958;2023-02-28T10:02:15;9.43;;;7.30;;
9264;SDS011;4669;49.594;10.958;2023-02-28T10:07:33;11.25;;;7.15;;
9264;SDS011;4669;49.594;10.958;2023-02-28T10:12:44;7.25;;;6.30;;
9264;SDS011;4669;49.594;10.958;2023-02-28T10:17:50;10.73;;;7.57;;
9264;SDS011;4669;49.594;10.958;2023-02-28T10:22:57;7.60;;;6.80;;
9264;SDS011;4669;49.594;10.958;2023-02-28T10:28:10;6.95;;;6.10;;
9264;SDS011;4669;49.594;10.958;2023-02-28T10:33:19;9.45;;;6.30;;
9264;SDS011;4669;49.594;10.958;2023-02-28T10:38:25;8.48;;;6.93;;
9264;SDS011;4669;49.594;10.958;2023-02-28T10:43:28;7.60;;;6.35;;
9264;SDS011;4669;49.594;10.958;2023-02-28T10:48:33;9.07;;;6.63;;
9264;SDS011;4669;49.594;10.958;2023-02-28T10:53:39;8.73;;;6.22;;
9264;SDS011;4669;49.594;10.958;2023-02-28T10:58:50;8.98;;;6.57;;
9264;SDS011;4669;49.594;10.958;2023-02-28T11:03:56;9.02;;;6.63;;
9264;SDS011;4669;49.594;10.958;2023-02-28T11:08:59;8.18;;;6.32;;
9264;SDS011;4669;49.594;10.958;2023-02-28T11:14:04;8.90;;;6.35;;
9264;SDS011;4669;49.594;10.958;2023-02-28T11:19:15;9.02;;;6.40;;
9264;SDS011;4669;49.594;10.958;2023-02-28T11:24:22;7.55;;;6.40;;
9264;SDS011;4669;49.594;10.958;2023-02-28T11:29:28;8.88;;;6.90;;
9264;SDS011;4669;49.594;10.958;2023-02-28T11:34:32;8.95;;;6.03;;
9264;SDS011;4669;49.594;10.958;2023-02-28T11:39:34;8.23;;;6.40;;
9264;SDS011;4669;49.594;10.958;2023-02-28T11:44:41;9.45;;;6.90;;
9264;SDS011;4669;49.594;10.958;2023-02-28T11:50:00;9.20;;;6.93;;
9264;SDS011;4669;49.594;10.958;2023-02-28T11:55:19;10.73;;;7.25;;
9264;SDS011;4669;49.594;10.958;2023-02-28T12:00:30;6.88;;;6.07;;
9264;SDS011;4669;49.594;10.958;2023-02-28T12:05:45;7.30;;;5.90;;
9264;SDS011;4669;49.594;10.958;2023-02-28T12:10:54;8.38;;;6.70;;
9264;SDS011;4669;49.594;10.958;2023-02-28T12:16:10;8.40;;;6.32;;
9264;SDS011;4669;49.594;10.958;2023-02-28T12:21:26;9.27;;;6.00;;
9264;SDS011;4669;49.594;10.958;2023-02-28T12:26:37;10.20;;;6.45;;
9264;SDS011;4669;49.594;10.958;2023-02-28T12:31:41;8.27;;;5.90;;
9264;SDS011;4669;49.594;10.958;2023-02-28T12:36:51;8.18;;;6.10;;
9264;SDS011;4669;49.594;10.958;2023-02-28T12:41:56;7.82;;;6.00;;
9264;SDS011;4669;49.594;10.958;2023-02-28T12:47:03;8.27;;;6.15;;
9264;SDS011;4669;49.594;10.958;2023-02-28T12:52:11;8.75;;;7.13;;
9264;SDS011;4669;49.594;10.958;2023-02-28T12:57:18;7.80;;;6.10;;
9264;SDS011;4669;49.594;10.958;2023-02-28T13:02:33;10.55;;;6.82;;
9264;SDS011;4669;49.594;10.958;2023-02-28T13:07:58;15.07;;;8.05;;
9264;SDS011;4669;49.594;10.958;2023-02-28T13:13:22;9.68;;;7.10;;
9264;SDS011;4669;49.594;10.958;2023-02-28T13:18:30;12.77;;;7.45;;
9264;SDS011;4669;49.594;10.958;2023-02-28T13:23:40;9.73;;;6.75;;
9264;SDS011;4669;49.594;10.958;2023-02-28T13:29:03;8.15;;;6.72;;
9264;SDS011;4669;49.594;10.958;2023-02-28T13:34:29;13.30;;;9.48;;
9264;SDS011;4669;49.594;10.958;2023-02-28T13:39:47;9.55;;;7.40;;
9264;SDS011;4669;49.594;10.958;2023-02-28T13:50:28;8.40;;;6.30;;
9264;SDS011;4669;49.594;10.958;2023-02-28T13:55:35;7.70;;;6.43;;
9264;SDS011;4669;49.594;10.958;2023-02-28T14:00:45;7.43;;;6.47;;
9264;SDS011;4669;49.594;10.958;2023-02-28T14:06:08;8.18;;;6.50;;
9264;SDS011;4669;49.594;10.958;2023-02-28T14:16:39;8.75;;;6.80;;
9264;SDS011;4669;49.594;10.958;2023-02-28T14:21:49;8.90;;;6.75;;
9264;SDS011;4669;49.594;10.958;2023-02-28T14:32:45;9.93;;;6.57;;
9264;SDS011;4669;49.594;10.958;2023-02-28T14:37:52;8.70;;;6.55;;
9264;SDS011;4669;49.594;10.958;2023-02-28T14:42:56;10.73;;;7.53;;
9264;SDS011;4669;49.594;10.958;2023-02-28T14:48:01;11.85;;;7.72;;
9264;SDS011;4669;49.594;10.958;2023-02-28T14:53:05;14.52;;;9.60;;
9264;SDS011;4669;49.594;10.958;2023-02-28T14:58:21;9.27;;;6.57;;
9264;SDS011;4669;49.594;10.958;2023-02-28T15:03:29;8.77;;;6.78;;
9264;SDS011;4669;49.594;10.958;2023-02-28T15:08:32;8.02;;;7.13;;
9264;SDS011;4669;49.594;10.958;2023-02-28T15:13:36;11.95;;;7.35;;
9264;SDS011;4669;49.594;10.958;2023-02-28T15:18:44;12.48;;;7.63;;
9264;SDS011;4669;49.594;10.958;2023-02-28T15:23:51;10.60;;;7.85;;
9264;SDS011;4669;49.594;10.958;2023-02-28T15:28:58;10.50;;;7.32;;
9264;SDS011;4669;49.594;10.958;2023-02-28T15:34:04;8.85;;;6.78;;
9264;SDS011;4669;49.594;10.958;2023-02-28T15:39:18;11.02;;;6.35;;
9264;SDS011;4669;49.594;10.958;2023-02-28T15:44:25;14.00;;;7.53;;
9264;SDS011;4669;49.594;10.958;2023-02-28T15:49:33;12.15;;;8.77;;
9264;SDS011;4669;49.594;10.958;2023-02-28T15:54:41;14.70;;;8.85;;
9264;SDS011;4669;49.594;10.958;2023-02-28T15:59:48;12.43;;;9.88;;
9264;SDS011;4669;49.594;10.958;2023-02-28T16:05:17;11.07;;;8.55;;
9264;SDS011;4669;49.594;10.958;2023-02-28T16:10:28;9.13;;;7.55;;
9264;SDS011;4669;49.594;10.958;2023-02-28T16:15:33;11.60;;;8.35;;
9264;SDS011;4669;49.594;10.958;2023-02-28T16:20:43;10.50;;;8.52;;
9264;SDS011;4669;49.594;10.958;2023-02-28T16:25:45;22.75;;;14.82;;
9264;SDS011;4669;49.594;10.958;2023-02-28T16:30:47;10.95;;;8.68;;
9264;SDS011;4669;49.594;10.958;2023-02-28T16:35:53;12.20;;;8.68;;
9264;SDS011;4669;49.594;10.958;2023-02-28T16:40:56;12.15;;;9.63;;
9264;SDS011;4669;49.594;10.958;2023-02-28T16:46:00;12.07;;;9.23;;
9264;SDS011;4669;49.594;10.958;2023-02-28T16:51:05;11.32;;;8.57;;
9264;SDS011;4669;49.594;10.958;2023-02-28T16:56:12;12.07;;;8.73;;
9264;SDS011;4669;49.594;10.958;2023-02-28T17:01:17;13.38;;;8.98;;
9264;SDS011;4669;49.594;10.958;2023-02-28T17:06:24;12.98;;;9.13;;
9264;SDS011;4669;49.594;10.958;2023-02-28T17:11:28;18.95;;;14.30;;
9264;SDS011;4669;49.594;10.958;2023-02-28T17:16:31;15.32;;;11.63;;
9264;SDS011;4669;49.594;10.958;2023-02-28T17:21:37;16.23;;;12.63;;
9264;SDS011;4669;49.594;10.958;2023-02-28T17:26:42;19.85;;;14.38;;
9264;SDS011;4669;49.594;10.958;2023-02-28T17:31:44;20.38;;;12.23;;
9264;SDS011;4669;49.594;10.958;2023-02-28T17:36:48;17.20;;;13.32;;
9264;SDS011;4669;49.594;10.958;2023-02-28T17:41:52;17.00;;;13.05;;
9264;SDS011;4669;49.594;10.958;2023-02-28T17:46:54;17.27;;;13.60;;
9264;SDS011;4669;49.594;10.958;2023-02-28T17:51:58;23.08;;;15.32;;
9264;SDS011;4669;49.594;10.958;2023-02-28T17:57:00;19.02;;;14.43;;
9264;SDS011;4669;49.594;10.958;2023-02-28T18:02:02;17.88;;;13.73;;
9264;SDS011;4669;49.594;10.958;2023-02-28T18:07:06;25.42;;;18.08;;
9264;SDS011;4669;49.594;10.958;2023-02-28T18:12:12;25.90;;;18.38;;
9264;SDS011;4669;49.594;10.958;2023-02-28T18:17:14;19.52;;;15.05;;
9264;SDS011;4669;49.594;10.958;2023-02-28T18:22:17;19.48;;;13.35;;
9264;SDS011;4669;49.594;10.958;2023-02-28T18:27:19;16.20;;;12.70;;
9264;SDS011;4669;49.594;10.958;2023-02-28T18:32:21;18.17;;;12.23;;
9264;SDS011;4669;49.594;10.958;2023-02-28T18:37:25;20.35;;;13.80;;
9264;SDS011;4669;49.594;10.958;2023-02-28T18:42:27;16.60;;;13.73;;
9264;SDS011;4669;49.594;10.958;2023-02-28T18:47:29;18.27;;;12.60;;
9264;SDS011;4669;49.594;10.958;2023-02-28T18:52:32;15.73;;;12.00;;
9264;SDS011;4669;49.594;10.958;2023-02-28T18:57:34;14.65;;;11.70;;
9264;SDS011;4669;49.594;10.958;2023-02-28T19:02:36;15.50;;;11.85;;
9264;SDS011;4669;49.594;10.958;2023-02-28T19:07:40;14.10;;;11.65;;
9264;SDS011;4669;49.594;10.958;2023-02-28T19:12:42;37.67;;;24.85;;
9264;SDS011;4669;49.594;10.958;2023-02-28T19:17:44;15.88;;;12.13;;
9264;SDS011;4669;49.594;10.958;2023-02-28T19:22:48;14.93;;;11.88;;
9264;SDS011;4669;49.594;10.958;2023-02-28T19:27:50;17.05;;;12.48;;
9264;SDS011;4669;49.594;10.958;2023-02-28T19:32:53;17.88;;;13.05;;
9264;SDS011;4669;49.594;10.958;2023-02-28T19:37:56;21.35;;;12.00;;
9264;SDS011;4669;49.594;10.958;2023-02-28T19:42:59;20.38;;;12.80;;
9264;SDS011;4669;49.594;10.958;2023-02-28T19:48:01;16.42;;;12.13;;
9264;SDS011;4669;49.594;10.958;2023-02-28T19:53:05;17.65;;;12.52;;
9264;SDS011;4669;49.594;10.958;2023-02-28T19:58:07;17.42;;;12.95;;
9264;SDS011;4669;49.594;10.958;2023-02-28T20:03:09;17.27;;;12.90;;
9264;SDS011;4669;49.594;10.958;2023-02-28T20:08:13;16.38;;;12.52;;
9264;SDS011;4669;49.594;10.958;2023-02-28T20:13:15;16.65;;;13.95;;
9264;SDS011;4669;49.594;10.958;2023-02-28T20:18:17;18.52;;;14.60;;
9264;SDS011;4669;49.594;10.958;2023-02-28T20:23:20;24.88;;;14.93;;
9264;SDS011;4669;49.594;10.958;2023-02-28T20:28:22;18.10;;;14.18;;
9264;SDS011;4669;49.594;10.958;2023-02-28T20:33:24;19.10;;;14.52;;
9264;SDS011;4669;49.594;10.958;2023-02-28T20:38:28;17.27;;;13.43;;
9264;SDS011;4669;49.594;10.958;2023-02-28T20:43:30;18.85;;;13.82;;
9264;SDS011;4669;49.594;10.958;2023-02-28T20:48:32;21.23;;;13.73;;
9264;SDS011;4669;49.594;10.958;2023-02-28T20:53:36;19.43;;;14.90;;
9264;SDS011;4669;49.594;10.958;2023-02-28T20:58:38;19.30;;;15.68;;
9264;SDS011;4669;49.594;10.958;2023-02-28T21:03:40;21.98;;;14.68;;
9264;SDS011;4669;49.594;10.958;2023-02-28T21:08:44;21.07;;;15.87;;
9264;SDS011;4669;49.594;10.958;2023-02-28T21:13:47;20.10;;;14.67;;
9264;SDS011;4669;49.594;10.958;2023-02-28T21:18:50;20.27;;;15.00;;
9264;SDS011;4669;49.594;10.958;2023-02-28T21:23:54;21.07;;;14.93;;
9264;SDS011;4669;49.594;10.958;2023-02-28T21:28:56;21.92;;;15.40;;
9264;SDS011;4669;49.594;10.958;2023-02-28T21:34:01;19.17;;;15.40;;
9264;SDS011;4669;49.594;10.958;2023-02-28T21:39:08;21.15;;;15.18;;
9264;SDS011;4669;49.594;10.958;2023-02-28T21:44:13;17.77;;;15.20;;
9264;SDS011;4669;49.594;10.958;2023-02-28T21:49:18;22.53;;;15.73;;
9264;SDS011;4669;49.594;10.958;2023-02-28T21:54:21;20.97;;;15.47;;
9264;SDS011;4669;49.594;10.958;2023-02-28T21:59:23;19.65;;;15.32;;
9264;SDS011;4669;49.594;10.958;2023-02-28T22:04:25;18.27;;;14.80;;
9264;SDS011;4669;49.594;10.958;2023-02-28T22:09:29;21.17;;;14.27;;
9264;SDS011;4669;49.594;10.958;2023-02-28T22:14:31;20.35;;;15.43;;
9264;SDS011;4669;49.594;10.958;2023-02-28T22:19:33;18.97;;;14.73;;
9264;SDS011;4669;49.594;10.958;2023-02-28T22:24:37;18.93;;;15.33;;
9264;SDS011;4669;49.594;10.958;2023-02-28T22:29:39;20.50;;;15.43;;
9264;SDS011;4669;49.594;10.958;2023-02-28T22:34:41;19.93;;;14.43;;
9264;SDS011;4669;49.594;10.958;2023-02-28T22:39:44;19.30;;;15.13;;
9264;SDS011;4669;49.594;10.958;2023-02-28T22:44:48;19.00;;;14.90;;
9264;SDS011;4669;49.594;10.958;2023-02-28T22:49:50;20.83;;;14.53;;
9264;SDS011;4669;49.594;10.958;2023-02-28T22:54:54;19.63;;;15.23;;
9264;SDS011;4669;49.594;10.958;2023-02-28T22:59:56;20.42;;;15.82;;
